createdAt,value
2019-01-06T00:50:12.791Z,4.28
2019-01-06T02:27:47.116Z,3.83
2019-01-06T06:56:35.592Z,2.52
2019-01-06T10:29:38.727Z,5.00
2019-01-06T10:34:58.998Z,2.83
2019-01-06T10:41:00.147Z,3.22
2019-01-06T14:12:33.005Z,1.82
2019-01-06T14:18:44.510Z,2.47
2019-01-06T14:24:08.797Z,1.80
2019-01-06T15:01:05.695Z,2.47
2019-01-06T15:06:34.771Z,1.80
2019-01-06T15:18:33.285Z,2.92
2019-01-06T15:24:23.377Z,3.85
2019-01-06T17:41:34.657Z,8.05
2019-01-06T17:46:56.242Z,7.45
2019-01-06T17:52:21.161Z,6.67
2019-01-06T17:57:42.849Z,9.13
2019-01-06T18:02:58.226Z,7.97
2019-01-06T18:08:28.688Z,7.47
2019-01-06T18:14:05.416Z,10.23
2019-01-06T18:19:26.126Z,8.53
2019-01-06T18:25:07.236Z,8.43
2019-01-06T18:30:57.374Z,7.85
2019-01-06T18:36:26.339Z,9.88
2019-01-06T18:41:52.044Z,10.55
2019-01-06T18:47:12.005Z,9.70
2019-01-06T18:52:32.380Z,11.10
2019-01-06T18:57:57.002Z,10.93
2019-01-06T19:03:18.666Z,9.58
2019-01-06T19:08:49.220Z,10.30
2019-01-06T19:14:22.675Z,11.15
2019-01-06T19:19:42.645Z,12.18
2019-01-06T19:25:02.735Z,12.45
2019-01-06T19:30:27.504Z,12.47
2019-01-06T19:35:58.248Z,13.13
2019-01-06T19:41:26.194Z,12.55
2019-01-06T19:46:46.566Z,13.75
2019-01-06T19:52:17.412Z,15.83
2019-01-06T19:57:37.261Z,14.85
2019-01-06T20:03:04.947Z,16.70
2019-01-06T20:08:39.353Z,15.63
2019-01-06T20:13:59.581Z,18.85
2019-01-06T20:19:36.383Z,22.15
2019-01-06T20:25:12.950Z,25.52
2019-01-06T20:30:34.628Z,28.38
2019-01-06T20:35:54.717Z,23.80
2019-01-06T20:41:34.385Z,21.07
2019-01-06T20:47:07.830Z,23.27
2019-01-06T20:52:27.825Z,20.92
2019-01-06T20:58:03.402Z,21.20
2019-01-06T21:03:28.086Z,21.07
2019-01-06T21:08:56.441Z,21.62
2019-01-06T21:14:12.923Z,24.15
2019-01-06T21:19:53.376Z,24.37
2019-01-06T21:25:13.332Z,24.15
2019-01-06T21:30:41.117Z,29.85
2019-01-06T21:36:12.364Z,29.27
2019-01-06T21:41:34.072Z,26.80
2019-01-06T21:46:54.058Z,28.73
2019-01-06T21:52:06.532Z,28.47
2019-01-06T21:57:39.953Z,30.85
2019-01-06T22:03:00.007Z,32.60
2019-01-06T22:08:20.404Z,28.52
2019-01-06T22:13:46.237Z,27.45
2019-01-06T22:19:16.807Z,33.60
2019-01-06T22:24:36.800Z,28.55
2019-01-06T22:29:57.108Z,31.02
2019-01-06T22:35:18.916Z,37.42
2019-01-06T22:40:38.031Z,30.75
2019-01-06T22:45:58.371Z,37.85
2019-01-06T22:51:25.834Z,34.40
2019-01-06T22:56:53.370Z,36.33
2019-01-06T23:02:30.134Z,35.17
2019-01-06T23:07:50.632Z,35.65
2019-01-06T23:13:21.137Z,34.20
2019-01-06T23:18:48.403Z,35.33
2019-01-06T23:24:08.180Z,32.40
2019-01-06T23:29:38.897Z,35.35
2019-01-06T23:34:58.846Z,31.20
2019-01-06T23:40:19.186Z,33.35
2019-01-06T23:45:39.463Z,29.18
2019-01-06T23:50:54.510Z,29.07
2019-01-06T23:56:24.860Z,31.20
